createdAt,value
2017-12-28T00:00:03.461Z,0
2017-12-28T00:01:04.897Z,0
2017-12-28T00:02:06.822Z,0
2017-12-28T00:03:09.230Z,0
2017-12-28T00:04:11.466Z,0
2017-12-28T00:05:13.460Z,0
2017-12-28T00:06:15.933Z,0
2017-12-28T00:07:18.145Z,0
2017-12-28T00:08:20.198Z,0
2017-12-28T00:09:22.401Z,0
2017-12-28T00:10:23.810Z,0
2017-12-28T00:11:25.794Z,0
2017-12-28T00:12:27.915Z,0
2017-12-28T00:13:29.997Z,0
2017-12-28T00:14:32.300Z,0
2017-12-28T00:15:34.567Z,0
2017-12-28T00:16:36.697Z,0
2017-12-28T00:17:38.760Z,0
2017-12-28T00:18:40.864Z,0
2017-12-28T00:19:42.699Z,0
2017-12-28T00:20:44.993Z,0
2017-12-28T00:21:47.236Z,0
2017-12-28T00:22:48.652Z,0
2017-12-28T00:23:50.862Z,0
2017-12-28T00:24:52.809Z,0
2017-12-28T00:25:55.218Z,0
2017-12-28T00:26:57.483Z,0
2017-12-28T00:27:58.897Z,0
2017-12-28T00:29:00.319Z,0
2017-12-28T00:30:01.723Z,0
2017-12-28T00:31:03.135Z,0
2017-12-28T00:32:04.549Z,0
2017-12-28T00:33:05.956Z,0
2017-12-28T00:34:07.367Z,0
2017-12-28T00:35:08.772Z,0
2017-12-28T00:36:10.196Z,0
2017-12-28T00:37:11.624Z,0
2017-12-28T00:38:13.040Z,0
2017-12-28T00:39:14.454Z,0
2017-12-28T00:40:15.867Z,0
2017-12-28T00:41:17.276Z,0
2017-12-28T00:42:18.680Z,0
2017-12-28T00:43:20.095Z,0
2017-12-28T00:44:21.503Z,0
2017-12-28T00:45:22.919Z,0
2017-12-28T00:46:24.332Z,0
2017-12-28T00:47:25.748Z,0
2017-12-28T00:48:27.162Z,0
2017-12-28T00:49:28.573Z,0
2017-12-28T00:50:29.977Z,0
2017-12-28T00:51:31.386Z,0
2017-12-28T00:52:32.817Z,0
2017-12-28T00:53:34.219Z,0
2017-12-28T00:54:35.633Z,0
2017-12-28T00:55:37.040Z,0
2017-12-28T00:56:38.460Z,0
2017-12-28T00:57:39.865Z,0
2017-12-28T00:58:41.268Z,0
2017-12-28T00:59:42.677Z,0
2017-12-28T01:00:44.086Z,0
2017-12-28T01:01:45.495Z,0
2017-12-28T01:02:46.901Z,0
2017-12-28T01:03:48.303Z,0
2017-12-28T01:04:49.717Z,0
2017-12-28T01:05:51.117Z,0
2017-12-28T01:06:52.517Z,0
2017-12-28T01:07:53.926Z,0
2017-12-28T01:08:55.354Z,0
2017-12-28T01:09:56.760Z,0
2017-12-28T01:10:58.168Z,0
2017-12-28T01:11:59.574Z,0
2017-12-28T01:13:00.985Z,0
2017-12-28T01:14:02.400Z,0
2017-12-28T01:15:03.808Z,0
2017-12-28T01:16:05.216Z,0
2017-12-28T01:17:06.626Z,0
2017-12-28T01:18:08.043Z,0
2017-12-28T01:19:09.468Z,0
2017-12-28T01:20:10.885Z,0
2017-12-28T01:21:12.305Z,0
2017-12-28T01:22:13.717Z,0
2017-12-28T01:23:15.127Z,0
2017-12-28T01:24:16.540Z,0
2017-12-28T01:25:17.946Z,0
2017-12-28T01:26:19.353Z,0
2017-12-28T01:27:20.768Z,0
2017-12-28T01:28:22.174Z,0
2017-12-28T01:29:23.587Z,0
2017-12-28T01:30:24.994Z,0
2017-12-28T01:31:26.407Z,0
2017-12-28T01:32:27.823Z,0
2017-12-28T01:33:29.233Z,0
2017-12-28T01:34:30.643Z,0
2017-12-28T01:35:32.059Z,0
2017-12-28T01:36:33.465Z,0
2017-12-28T01:37:34.881Z,0
2017-12-28T01:38:36.287Z,0
2017-12-28T01:39:37.695Z,0
2017-12-28T01:40:39.103Z,0
2017-12-28T01:41:40.522Z,0
2017-12-28T01:42:41.954Z,0
2017-12-28T01:43:43.356Z,0
2017-12-28T01:44:44.770Z,0
2017-12-28T01:45:46.188Z,0
2017-12-28T01:46:47.593Z,0
2017-12-28T01:47:48.997Z,0
2017-12-28T01:48:50.410Z,0
2017-12-28T01:49:51.830Z,0
2017-12-28T01:50:53.235Z,0
2017-12-28T01:51:54.645Z,0
2017-12-28T01:52:56.048Z,0
2017-12-28T01:53:57.466Z,0
2017-12-28T01:54:58.912Z,0
2017-12-28T01:56:00.314Z,0
2017-12-28T01:57:01.721Z,0
2017-12-28T01:58:03.136Z,0
2017-12-28T01:59:04.545Z,0
2017-12-28T02:00:05.955Z,0
2017-12-28T02:01:07.368Z,0
2017-12-28T02:02:08.784Z,0
2017-12-28T02:03:10.189Z,0
2017-12-28T02:04:11.597Z,0
2017-12-28T02:05:13.015Z,0
2017-12-28T02:06:14.429Z,0
2017-12-28T02:07:16.686Z,0
2017-12-28T02:08:18.099Z,0
2017-12-28T02:09:19.501Z,0
2017-12-28T02:10:20.912Z,0
2017-12-28T02:11:22.327Z,0
2017-12-28T02:12:23.746Z,0
2017-12-28T02:13:25.153Z,0
2017-12-28T02:14:26.564Z,0
2017-12-28T02:15:27.987Z,0
2017-12-28T02:16:29.408Z,0
2017-12-28T02:17:30.820Z,0
2017-12-28T02:18:32.218Z,0
2017-12-28T02:19:33.771Z,0
2017-12-28T02:20:35.186Z,0
2017-12-28T02:21:36.593Z,0
2017-12-28T02:22:38.007Z,0
2017-12-28T02:23:39.416Z,0
2017-12-28T02:24:40.827Z,0
2017-12-28T02:25:42.228Z,0
2017-12-28T02:26:43.640Z,0
2017-12-28T02:27:45.048Z,0
2017-12-28T02:28:46.445Z,0
2017-12-28T02:29:47.854Z,0
2017-12-28T02:30:49.268Z,0
2017-12-28T02:31:50.703Z,0
2017-12-28T02:32:52.110Z,0
2017-12-28T02:33:53.541Z,0
2017-12-28T02:34:54.952Z,0
2017-12-28T02:35:56.362Z,0
2017-12-28T02:36:57.778Z,0
2017-12-28T02:37:59.203Z,0
2017-12-28T02:39:00.608Z,0
2017-12-28T02:40:02.018Z,0
2017-12-28T02:41:03.431Z,0
2017-12-28T02:42:04.842Z,0
2017-12-28T02:43:06.247Z,0
2017-12-28T02:44:07.658Z,0
2017-12-28T02:45:09.059Z,0
2017-12-28T02:46:10.478Z,0
2017-12-28T02:47:11.881Z,0
2017-12-28T02:48:13.290Z,0
2017-12-28T02:49:14.707Z,0
2017-12-28T02:50:16.242Z,0
2017-12-28T02:51:17.665Z,0
2017-12-28T02:52:19.070Z,0
2017-12-28T02:53:20.484Z,0
2017-12-28T02:54:21.892Z,0
2017-12-28T02:55:23.304Z,0
2017-12-28T02:56:24.708Z,0
2017-12-28T02:57:26.241Z,0
2017-12-28T02:58:27.658Z,0
2017-12-28T02:59:29.062Z,0
2017-12-28T03:00:30.473Z,0
2017-12-28T03:01:31.884Z,0
2017-12-28T03:02:33.303Z,0
2017-12-28T03:03:34.712Z,0
2017-12-28T03:04:36.121Z,0
2017-12-28T03:05:37.528Z,0
2017-12-28T03:06:38.930Z,0
2017-12-28T03:07:40.397Z,0
2017-12-28T03:08:41.756Z,0
2017-12-28T03:09:43.212Z,0
2017-12-28T03:10:44.621Z,0
2017-12-28T03:11:46.028Z,0
2017-12-28T03:12:47.438Z,0
2017-12-28T03:13:48.845Z,0
2017-12-28T03:14:50.252Z,0
2017-12-28T03:15:51.668Z,0
2017-12-28T03:16:53.086Z,0
2017-12-28T03:17:54.492Z,0
2017-12-28T03:18:55.915Z,0
2017-12-28T03:19:57.313Z,0
2017-12-28T03:20:58.717Z,0
2017-12-28T03:22:00.126Z,0
2017-12-28T03:23:01.562Z,0
2017-12-28T03:24:02.967Z,0
2017-12-28T03:25:04.374Z,0
2017-12-28T03:26:05.792Z,0
2017-12-28T03:27:07.211Z,0
2017-12-28T03:28:08.635Z,0
2017-12-28T03:29:10.052Z,0
2017-12-28T03:30:11.466Z,0
2017-12-28T03:31:12.871Z,0
2017-12-28T03:32:14.291Z,0
2017-12-28T03:33:15.700Z,0
2017-12-28T03:34:17.112Z,0
2017-12-28T03:35:18.526Z,0
2017-12-28T03:36:19.932Z,0
2017-12-28T03:37:21.342Z,0
2017-12-28T03:38:22.750Z,0
2017-12-28T03:39:24.158Z,0
2017-12-28T03:40:25.613Z,0
2017-12-28T03:41:26.972Z,0
2017-12-28T03:42:28.385Z,0
2017-12-28T03:43:29.792Z,0
2017-12-28T03:44:31.208Z,0
2017-12-28T03:45:32.616Z,0
2017-12-28T03:46:34.038Z,0
2017-12-28T03:47:35.444Z,0
2017-12-28T03:48:37.844Z,0
2017-12-28T03:49:39.271Z,0
2017-12-28T03:50:40.683Z,0
2017-12-28T03:51:42.095Z,0
2017-12-28T03:52:43.502Z,0
2017-12-28T03:53:44.907Z,0
2017-12-28T03:54:46.322Z,0
2017-12-28T03:55:47.734Z,0
2017-12-28T03:56:49.147Z,0
2017-12-28T03:57:50.551Z,0
2017-12-28T03:58:51.965Z,0
2017-12-28T03:59:53.371Z,0
2017-12-28T04:00:54.777Z,0
2017-12-28T04:01:56.188Z,0
2017-12-28T04:02:57.595Z,0
2017-12-28T04:03:59.007Z,0
2017-12-28T04:05:00.428Z,0
2017-12-28T04:06:01.834Z,0
2017-12-28T04:07:03.240Z,0
2017-12-28T04:08:04.668Z,0
2017-12-28T04:09:06.069Z,0
2017-12-28T04:10:07.481Z,0
2017-12-28T04:11:08.888Z,0
2017-12-28T04:12:10.298Z,0
2017-12-28T04:13:11.703Z,0
2017-12-28T04:14:13.119Z,0
2017-12-28T04:15:14.536Z,0
2017-12-28T04:16:15.947Z,0
2017-12-28T04:17:17.363Z,0
2017-12-28T04:18:18.779Z,0
2017-12-28T04:19:20.195Z,0
2017-12-28T04:20:21.612Z,0
2017-12-28T04:21:23.020Z,0
2017-12-28T04:22:24.426Z,0
2017-12-28T04:23:25.834Z,0
2017-12-28T04:24:27.247Z,0
2017-12-28T04:25:28.662Z,0
2017-12-28T04:26:30.070Z,0
2017-12-28T04:27:31.473Z,0
2017-12-28T04:28:32.889Z,0
2017-12-28T04:29:34.291Z,0
2017-12-28T04:30:35.693Z,0
2017-12-28T04:31:37.114Z,0
2017-12-28T04:32:38.515Z,0
2017-12-28T04:33:39.928Z,0
2017-12-28T04:34:41.341Z,0
2017-12-28T04:35:42.750Z,0
2017-12-28T04:36:44.155Z,0
2017-12-28T04:37:45.570Z,0
2017-12-28T04:38:46.977Z,0
2017-12-28T04:39:48.387Z,0
2017-12-28T04:40:49.794Z,0
2017-12-28T04:41:51.201Z,0
2017-12-28T04:42:52.608Z,0
2017-12-28T04:43:54.008Z,0
2017-12-28T04:44:55.420Z,0
2017-12-28T04:45:56.825Z,0
2017-12-28T04:46:58.230Z,0
2017-12-28T04:47:59.641Z,0
2017-12-28T04:49:01.045Z,0
2017-12-28T04:50:02.458Z,0
2017-12-28T04:51:03.863Z,0
2017-12-28T04:52:05.261Z,0
2017-12-28T04:53:06.667Z,0
2017-12-28T04:54:08.075Z,0
2017-12-28T04:55:09.487Z,0
2017-12-28T04:56:10.933Z,0
2017-12-28T04:57:12.305Z,0
2017-12-28T04:58:13.719Z,0
2017-12-28T04:59:15.122Z,0
2017-12-28T05:00:16.536Z,0
2017-12-28T05:01:17.941Z,0
2017-12-28T05:02:19.353Z,0
2017-12-28T05:03:20.768Z,0
2017-12-28T05:04:22.174Z,0
2017-12-28T05:05:23.584Z,0
2017-12-28T05:06:25.102Z,0
2017-12-28T05:07:26.521Z,0
2017-12-28T05:08:27.923Z,0
2017-12-28T05:09:29.338Z,0
2017-12-28T05:10:30.754Z,0
2017-12-28T05:11:32.167Z,0
2017-12-28T05:12:33.565Z,0
2017-12-28T05:13:34.965Z,0
2017-12-28T05:14:36.373Z,0
2017-12-28T05:15:37.784Z,0
2017-12-28T05:16:39.192Z,0
2017-12-28T05:17:40.603Z,0
2017-12-28T05:18:42.034Z,0
2017-12-28T05:19:43.443Z,0
2017-12-28T05:20:44.851Z,0
2017-12-28T05:21:46.253Z,0
2017-12-28T05:22:47.668Z,0
2017-12-28T05:23:49.079Z,0
2017-12-28T05:24:50.486Z,0
2017-12-28T05:25:51.896Z,0
2017-12-28T05:26:53.297Z,0
2017-12-28T05:27:54.708Z,0
2017-12-28T05:28:56.115Z,0
2017-12-28T05:29:57.528Z,0
2017-12-28T05:30:58.980Z,0
2017-12-28T05:32:00.381Z,0
2017-12-28T05:33:01.795Z,0
2017-12-28T05:34:03.202Z,0
2017-12-28T05:35:04.612Z,0
2017-12-28T05:36:06.023Z,0
2017-12-28T05:37:07.435Z,0
2017-12-28T05:38:08.850Z,0
2017-12-28T05:39:10.257Z,0
2017-12-28T05:40:11.671Z,0
2017-12-28T05:41:13.066Z,0
2017-12-28T05:42:14.474Z,0
2017-12-28T05:43:15.888Z,0
2017-12-28T05:44:17.290Z,0
2017-12-28T05:45:18.700Z,0
2017-12-28T05:46:20.109Z,0
2017-12-28T05:47:21.516Z,0
2017-12-28T05:48:22.923Z,0
2017-12-28T05:49:24.335Z,0
2017-12-28T05:50:25.734Z,0
2017-12-28T05:51:27.132Z,0
2017-12-28T05:52:28.539Z,0
2017-12-28T05:53:29.950Z,0
2017-12-28T05:54:31.357Z,0
2017-12-28T05:55:32.765Z,0
2017-12-28T05:56:34.169Z,0
2017-12-28T05:57:35.583Z,0
2017-12-28T05:58:36.985Z,0
2017-12-28T05:59:38.388Z,0
2017-12-28T06:00:39.801Z,0
2017-12-28T06:01:41.241Z,0
2017-12-28T06:02:42.643Z,0
2017-12-28T06:03:44.047Z,0
2017-12-28T06:04:45.461Z,0
2017-12-28T06:05:46.861Z,0
2017-12-28T06:06:48.279Z,0
2017-12-28T06:07:49.700Z,0
2017-12-28T06:08:51.115Z,0
2017-12-28T06:09:52.522Z,0
2017-12-28T06:10:53.928Z,0
2017-12-28T06:11:55.339Z,0
2017-12-28T06:12:56.742Z,0
2017-12-28T06:13:58.156Z,0
2017-12-28T06:14:59.563Z,0
2017-12-28T06:16:00.977Z,0
2017-12-28T06:17:02.385Z,0
2017-12-28T06:18:03.796Z,0
2017-12-28T06:19:05.204Z,0
2017-12-28T06:20:06.677Z,0
2017-12-28T06:21:08.083Z,0
2017-12-28T06:22:09.499Z,0
2017-12-28T06:23:10.908Z,0
2017-12-28T06:24:12.315Z,0
2017-12-28T06:25:13.720Z,0
2017-12-28T06:26:15.122Z,0
2017-12-28T06:27:16.542Z,0
2017-12-28T06:28:17.947Z,0
2017-12-28T06:29:19.361Z,0
2017-12-28T06:30:20.769Z,0
2017-12-28T06:31:22.180Z,0
2017-12-28T06:32:23.594Z,0
2017-12-28T06:33:25.006Z,0
2017-12-28T06:34:26.414Z,0
2017-12-28T06:35:27.821Z,0
2017-12-28T06:36:29.240Z,0
2017-12-28T06:37:30.652Z,0
2017-12-28T06:38:32.067Z,0
2017-12-28T06:39:33.468Z,0
2017-12-28T06:40:34.897Z,0
2017-12-28T06:41:36.310Z,0
2017-12-28T06:42:37.718Z,0
2017-12-28T06:43:39.124Z,0
2017-12-28T06:44:40.537Z,0
2017-12-28T06:45:41.982Z,0
2017-12-28T06:46:43.391Z,0
2017-12-28T06:47:44.802Z,0
2017-12-28T06:48:46.207Z,0
2017-12-28T06:49:47.617Z,0
2017-12-28T06:50:49.026Z,0
2017-12-28T06:51:50.436Z,0
2017-12-28T06:52:51.847Z,0
2017-12-28T06:53:53.252Z,0
2017-12-28T06:54:54.662Z,0
2017-12-28T06:55:56.074Z,0
2017-12-28T06:56:57.490Z,0
2017-12-28T06:57:58.906Z,0
2017-12-28T06:59:00.309Z,0
2017-12-28T07:00:01.731Z,0
2017-12-28T07:01:03.142Z,0
2017-12-28T07:02:04.544Z,0
2017-12-28T07:03:05.965Z,0
2017-12-28T07:04:07.377Z,0
2017-12-28T07:05:08.784Z,0
2017-12-28T07:06:10.198Z,0
2017-12-28T07:07:11.611Z,0
2017-12-28T07:08:13.012Z,0
2017-12-28T07:09:14.420Z,0
2017-12-28T07:10:15.828Z,0
2017-12-28T07:11:17.238Z,0
2017-12-28T07:12:18.638Z,0
2017-12-28T07:13:20.046Z,0
2017-12-28T07:14:21.459Z,0
2017-12-28T07:15:22.862Z,4
2017-12-28T07:16:24.269Z,4
2017-12-28T07:17:25.678Z,0
2017-12-28T07:18:27.086Z,4
2017-12-28T07:19:28.495Z,4
2017-12-28T07:20:29.906Z,4
2017-12-28T07:21:31.328Z,8
2017-12-28T07:22:32.735Z,4
2017-12-28T07:23:34.144Z,4
2017-12-28T07:24:35.558Z,8
2017-12-28T07:25:36.967Z,8
2017-12-28T07:26:38.374Z,12
2017-12-28T07:27:39.778Z,12
2017-12-28T07:28:41.196Z,16
2017-12-28T07:29:42.610Z,16
2017-12-28T07:30:44.021Z,20
2017-12-28T07:31:45.432Z,20
2017-12-28T07:32:46.837Z,24
2017-12-28T07:33:48.249Z,24
2017-12-28T07:34:49.652Z,28
2017-12-28T07:35:51.061Z,32
2017-12-28T07:36:52.471Z,32
2017-12-28T07:37:53.878Z,36
2017-12-28T07:38:55.290Z,40
2017-12-28T07:39:56.712Z,44
2017-12-28T07:40:58.117Z,44
2017-12-28T07:41:59.527Z,48
2017-12-28T07:43:00.936Z,52
2017-12-28T07:44:02.359Z,56
2017-12-28T07:45:03.798Z,64
2017-12-28T07:46:06.795Z,64
2017-12-28T07:47:08.198Z,72
2017-12-28T07:48:09.629Z,76
2017-12-28T07:49:11.038Z,84
2017-12-28T07:50:12.445Z,88
2017-12-28T07:51:13.852Z,96
2017-12-28T07:52:15.261Z,104
2017-12-28T07:53:16.677Z,104
2017-12-28T07:54:18.088Z,108
2017-12-28T07:55:19.500Z,108
2017-12-28T07:56:20.909Z,116
2017-12-28T07:57:22.325Z,124
2017-12-28T07:58:23.740Z,132
2017-12-28T07:59:25.161Z,140
2017-12-28T08:00:26.573Z,144
2017-12-28T08:01:27.996Z,136
2017-12-28T08:02:29.401Z,132
2017-12-28T08:03:30.800Z,152
2017-12-28T08:04:32.219Z,168
2017-12-28T08:05:33.628Z,164
2017-12-28T08:06:35.048Z,152
2017-12-28T08:07:36.453Z,180
2017-12-28T08:08:37.859Z,172
2017-12-28T08:09:39.274Z,184
2017-12-28T08:10:40.681Z,196
2017-12-28T08:11:42.092Z,184
2017-12-28T08:12:43.527Z,188
2017-12-28T08:13:44.915Z,176
2017-12-28T08:14:46.332Z,212
2017-12-28T08:15:47.733Z,236
2017-12-28T08:16:49.145Z,244
2017-12-28T08:17:50.563Z,236
2017-12-28T08:18:51.971Z,228
2017-12-28T08:19:53.377Z,92
2017-12-28T08:20:54.787Z,100
2017-12-28T08:21:56.203Z,104
2017-12-28T08:22:57.611Z,112
2017-12-28T08:23:59.017Z,92
2017-12-28T08:25:00.427Z,108
2017-12-28T08:26:01.842Z,112
2017-12-28T08:27:03.245Z,124
2017-12-28T08:28:04.668Z,136
2017-12-28T08:29:06.080Z,136
2017-12-28T08:30:07.507Z,144
2017-12-28T08:31:08.928Z,148
2017-12-28T08:32:10.347Z,160
2017-12-28T08:33:11.766Z,168
2017-12-28T08:34:13.171Z,160
2017-12-28T08:35:14.588Z,168
2017-12-28T08:36:16.007Z,168
2017-12-28T08:37:17.423Z,152
2017-12-28T08:38:18.829Z,164
2017-12-28T08:39:20.244Z,152
2017-12-28T08:40:21.653Z,164
2017-12-28T08:41:23.074Z,180
2017-12-28T08:42:24.490Z,164
2017-12-28T08:43:25.910Z,212
2017-12-28T08:44:27.318Z,224
2017-12-28T08:45:28.742Z,220
2017-12-28T08:46:30.148Z,240
2017-12-28T08:47:31.561Z,256
2017-12-28T08:48:32.976Z,240
2017-12-28T08:49:34.383Z,232
2017-12-28T08:50:35.798Z,232
2017-12-28T08:51:37.230Z,228
2017-12-28T08:52:38.642Z,248
2017-12-28T08:53:40.083Z,204
2017-12-28T08:54:41.491Z,172
2017-12-28T08:55:42.912Z,132
2017-12-28T08:56:44.316Z,156
2017-12-28T08:57:45.744Z,188
2017-12-28T08:58:47.156Z,208
2017-12-28T08:59:48.570Z,248
2017-12-28T09:00:50.007Z,272
2017-12-28T09:01:51.422Z,252
2017-12-28T09:02:52.829Z,296
2017-12-28T09:03:54.238Z,368
2017-12-28T09:04:55.649Z,304
2017-12-28T09:05:57.066Z,240
2017-12-28T09:06:58.481Z,192
2017-12-28T09:07:59.898Z,148
2017-12-28T09:09:01.318Z,128
2017-12-28T09:10:02.727Z,120
2017-12-28T09:11:04.149Z,156
2017-12-28T09:12:05.562Z,196
2017-12-28T09:13:06.974Z,172
2017-12-28T09:14:08.405Z,144
2017-12-28T09:15:09.806Z,140
2017-12-28T09:16:11.219Z,140
2017-12-28T09:17:12.630Z,144
2017-12-28T09:18:14.045Z,172
2017-12-28T09:19:15.447Z,184
2017-12-28T09:20:16.863Z,200
2017-12-28T09:21:18.281Z,212
2017-12-28T09:22:19.691Z,212
2017-12-28T09:23:21.106Z,212
2017-12-28T09:24:22.518Z,196
2017-12-28T09:25:23.944Z,208
2017-12-28T09:26:25.357Z,236
2017-12-28T09:27:26.769Z,188
2017-12-28T09:28:28.191Z,196
2017-12-28T09:29:29.601Z,224
2017-12-28T09:30:31.030Z,256
2017-12-28T09:31:32.452Z,252
2017-12-28T09:32:33.865Z,244
2017-12-28T09:33:38.261Z,268
2017-12-28T09:34:39.661Z,272
2017-12-28T09:35:41.104Z,248
2017-12-28T09:36:42.485Z,248
2017-12-28T09:37:43.905Z,268
2017-12-28T09:38:45.345Z,272
2017-12-28T09:39:46.726Z,260
2017-12-28T09:40:48.148Z,268
2017-12-28T09:41:49.552Z,276
2017-12-28T09:42:51.012Z,268
2017-12-28T09:43:52.427Z,276
2017-12-28T09:44:53.850Z,296
2017-12-28T09:45:55.262Z,308
2017-12-28T09:46:56.679Z,324
2017-12-28T09:47:58.087Z,320
2017-12-28T09:48:59.506Z,300
2017-12-28T09:50:00.919Z,276
2017-12-28T09:51:02.368Z,264
2017-12-28T09:52:03.800Z,268
2017-12-28T09:53:05.222Z,252
2017-12-28T09:54:06.642Z,256
2017-12-28T09:55:08.774Z,252
2017-12-28T09:56:10.218Z,300
2017-12-28T09:57:11.629Z,308
2017-12-28T09:58:13.046Z,304
2017-12-28T09:59:14.454Z,392
2017-12-28T10:00:15.859Z,520
2017-12-28T10:01:17.276Z,596
2017-12-28T10:02:18.681Z,436
2017-12-28T10:03:20.090Z,480
2017-12-28T10:04:21.506Z,420
2017-12-28T10:05:22.930Z,440
2017-12-28T10:06:24.345Z,352
2017-12-28T10:07:25.764Z,320
2017-12-28T10:08:27.173Z,340
2017-12-28T10:09:28.594Z,304
2017-12-28T10:10:30.003Z,400
2017-12-28T10:11:31.400Z,480
2017-12-28T10:12:32.821Z,488
2017-12-28T10:13:35.163Z,456
2017-12-28T10:14:36.577Z,372
2017-12-28T10:15:38.023Z,372
2017-12-28T10:16:39.450Z,448
2017-12-28T10:17:40.862Z,444
2017-12-28T10:18:42.280Z,400
2017-12-28T10:19:43.693Z,364
2017-12-28T10:20:45.108Z,400
2017-12-28T10:21:46.524Z,448
2017-12-28T10:22:47.952Z,344
2017-12-28T10:23:49.403Z,300
2017-12-28T10:24:50.812Z,336
2017-12-28T10:25:52.220Z,396
2017-12-28T10:26:53.635Z,472
2017-12-28T10:27:55.053Z,516
2017-12-28T10:28:56.463Z,392
2017-12-28T10:29:57.885Z,360
2017-12-28T10:30:59.289Z,464
2017-12-28T10:32:00.706Z,424
2017-12-28T10:33:02.135Z,504
2017-12-28T10:34:03.550Z,384
2017-12-28T10:35:04.968Z,424
2017-12-28T10:36:06.386Z,476
2017-12-28T10:37:07.801Z,516
2017-12-28T10:38:09.208Z,460
2017-12-28T10:39:10.634Z,332
2017-12-28T10:40:12.062Z,372
2017-12-28T10:41:13.472Z,396
2017-12-28T10:42:14.880Z,340
2017-12-28T10:43:16.289Z,408
2017-12-28T10:44:17.701Z,428
2017-12-28T10:45:19.122Z,432
2017-12-28T10:46:20.536Z,464
2017-12-28T10:47:21.943Z,472
2017-12-28T10:48:23.363Z,400
2017-12-28T10:49:24.780Z,400
2017-12-28T10:50:26.193Z,444
2017-12-28T10:51:27.615Z,532
2017-12-28T10:52:30.023Z,468
2017-12-28T10:53:31.433Z,508
2017-12-28T10:54:32.841Z,600
2017-12-28T10:55:34.269Z,536
2017-12-28T10:56:35.681Z,640
2017-12-28T10:57:37.087Z,512
2017-12-28T10:58:38.495Z,424
2017-12-28T10:59:39.916Z,560
2017-12-28T11:00:41.345Z,804
2017-12-28T11:01:42.761Z,376
2017-12-28T11:02:44.169Z,360
2017-12-28T11:03:45.590Z,592
2017-12-28T11:04:47.007Z,704
2017-12-28T11:05:48.426Z,684
2017-12-28T11:06:49.843Z,752
2017-12-28T11:07:51.283Z,600
2017-12-28T11:08:52.679Z,564
2017-12-28T11:09:54.098Z,812
2017-12-28T11:10:55.506Z,792
2017-12-28T11:11:56.930Z,460
2017-12-28T11:12:58.352Z,812
2017-12-28T11:13:59.777Z,932
2017-12-28T11:15:01.209Z,780
2017-12-28T11:16:02.627Z,1036
2017-12-28T11:17:04.041Z,1184
2017-12-28T11:18:05.463Z,536
2017-12-28T11:19:06.868Z,648
2017-12-28T11:20:08.278Z,844
2017-12-28T11:21:09.697Z,852
2017-12-28T11:22:11.104Z,752
2017-12-28T11:23:12.526Z,812
2017-12-28T11:24:13.931Z,900
2017-12-28T11:25:15.349Z,1068
2017-12-28T11:26:16.759Z,904
2017-12-28T11:27:18.178Z,740
2017-12-28T11:28:19.588Z,800
2017-12-28T11:29:20.997Z,744
2017-12-28T11:30:22.406Z,956
2017-12-28T11:31:23.959Z,800
2017-12-28T11:32:25.372Z,712
2017-12-28T11:33:26.787Z,748
2017-12-28T11:34:28.211Z,672
2017-12-28T11:35:29.629Z,876
2017-12-28T11:36:31.042Z,852
2017-12-28T11:37:32.469Z,888
2017-12-28T11:38:33.930Z,876
2017-12-28T11:39:35.356Z,1008
2017-12-28T11:40:36.775Z,1124
2017-12-28T11:41:38.198Z,972
2017-12-28T11:42:39.612Z,784
2017-12-28T11:43:41.033Z,924
2017-12-28T11:44:42.447Z,704
2017-12-28T11:45:43.878Z,584
2017-12-28T11:46:45.293Z,656
2017-12-28T11:47:46.701Z,668
2017-12-28T11:48:48.121Z,588
2017-12-28T11:49:49.541Z,540
2017-12-28T11:50:50.952Z,360
2017-12-28T11:51:52.375Z,392
2017-12-28T11:52:53.776Z,508
2017-12-28T11:53:55.190Z,632
2017-12-28T11:54:56.617Z,832
2017-12-28T11:55:58.024Z,800
2017-12-28T11:56:59.433Z,880
2017-12-28T11:58:00.853Z,464
2017-12-28T11:59:02.266Z,504
2017-12-28T12:00:03.688Z,712
2017-12-28T12:01:05.105Z,848
2017-12-28T12:02:06.523Z,1084
2017-12-28T12:03:07.930Z,1068
2017-12-28T12:04:09.350Z,752
2017-12-28T12:05:10.767Z,860
2017-12-28T12:06:12.178Z,880
2017-12-28T12:07:13.583Z,784
2017-12-28T12:08:15.003Z,928
2017-12-28T12:09:16.421Z,884
2017-12-28T12:10:17.843Z,640
2017-12-28T12:11:19.268Z,752
2017-12-28T12:12:20.681Z,740
2017-12-28T12:13:22.091Z,756
2017-12-28T12:14:23.505Z,768
2017-12-28T12:15:24.922Z,912
2017-12-28T12:16:26.333Z,872
2017-12-28T12:17:27.741Z,784
2017-12-28T12:18:29.153Z,904
2017-12-28T12:19:30.605Z,804
2017-12-28T12:20:31.973Z,876
2017-12-28T12:21:33.387Z,1072
2017-12-28T12:22:34.806Z,1016
2017-12-28T12:23:36.368Z,1104
2017-12-28T12:24:37.819Z,940
2017-12-28T12:25:39.229Z,868
2017-12-28T12:26:40.644Z,892
2017-12-28T12:27:42.061Z,776
2017-12-28T12:28:43.483Z,732
2017-12-28T12:29:44.891Z,660
2017-12-28T12:30:46.315Z,516
2017-12-28T12:31:47.743Z,616
2017-12-28T12:32:49.152Z,792
2017-12-28T12:33:50.573Z,432
2017-12-28T12:34:52.001Z,544
2017-12-28T12:35:53.411Z,936
2017-12-28T12:36:54.926Z,568
2017-12-28T12:37:56.332Z,856
2017-12-28T12:38:57.755Z,1076
2017-12-28T12:39:59.174Z,1216
2017-12-28T12:41:00.590Z,644
2017-12-28T12:42:02.011Z,568
2017-12-28T12:43:03.434Z,1264
2017-12-28T12:44:04.986Z,552
2017-12-28T12:45:06.406Z,524
2017-12-28T12:46:07.819Z,572
2017-12-28T12:47:09.254Z,736
2017-12-28T12:48:10.672Z,644
2017-12-28T12:49:12.097Z,1160
2017-12-28T12:50:13.703Z,684
2017-12-28T12:51:15.142Z,512
2017-12-28T12:52:16.554Z,340
2017-12-28T12:53:17.968Z,380
2017-12-28T12:54:19.402Z,352
2017-12-28T12:55:20.809Z,524
2017-12-28T12:56:24.139Z,404
2017-12-28T12:57:27.049Z,320
2017-12-28T12:58:29.863Z,268
2017-12-28T12:59:33.082Z,456
2017-12-28T13:00:35.137Z,456
2017-12-28T13:01:37.249Z,936
2017-12-28T13:02:39.485Z,588
2017-12-28T13:03:41.698Z,516
2017-12-28T13:04:44.047Z,424
2017-12-28T13:05:46.358Z,468
2017-12-28T13:06:49.550Z,972
2017-12-28T13:07:52.454Z,640
2017-12-28T13:08:54.711Z,572
2017-12-28T13:09:56.122Z,548
2017-12-28T13:10:57.762Z,476
2017-12-28T13:11:59.184Z,692
2017-12-28T13:13:00.605Z,672
2017-12-28T13:14:02.043Z,524
2017-12-28T13:15:03.480Z,432
2017-12-28T13:16:04.917Z,660
2017-12-28T13:17:06.353Z,504
2017-12-28T13:18:07.811Z,472
2017-12-28T13:19:09.237Z,248
2017-12-28T13:20:10.655Z,272
2017-12-28T13:21:12.079Z,396
2017-12-28T13:22:13.492Z,456
2017-12-28T13:23:14.911Z,472
2017-12-28T13:24:16.343Z,600
2017-12-28T13:25:17.752Z,548
2017-12-28T13:26:19.175Z,416
2017-12-28T13:27:20.584Z,420
2017-12-28T13:28:22.105Z,324
2017-12-28T13:29:23.525Z,380
2017-12-28T13:30:24.981Z,328
2017-12-28T13:31:26.403Z,388
2017-12-28T13:32:27.893Z,304
2017-12-28T13:33:29.308Z,404
2017-12-28T13:34:30.781Z,484
2017-12-28T13:35:32.206Z,512
2017-12-28T13:36:33.570Z,324
2017-12-28T13:37:34.994Z,320
2017-12-28T13:38:36.427Z,424
2017-12-28T13:39:37.835Z,468
2017-12-28T13:40:39.250Z,404
2017-12-28T13:41:40.667Z,300
2017-12-28T13:42:42.079Z,296
2017-12-28T13:43:43.501Z,304
2017-12-28T13:44:44.949Z,280
2017-12-28T13:45:46.392Z,308
2017-12-28T13:46:47.863Z,308
2017-12-28T13:47:49.276Z,384
2017-12-28T13:48:50.741Z,324
2017-12-28T13:49:52.167Z,304
2017-12-28T13:50:53.573Z,344
2017-12-28T13:51:54.979Z,248
2017-12-28T13:52:56.395Z,224
2017-12-28T13:53:57.816Z,284
2017-12-28T13:54:59.325Z,268
2017-12-28T13:56:00.823Z,324
2017-12-28T13:57:02.253Z,316
2017-12-28T13:58:03.666Z,288
2017-12-28T13:59:05.093Z,276
2017-12-28T14:00:06.504Z,276
2017-12-28T14:01:07.920Z,292
2017-12-28T14:02:09.369Z,304
2017-12-28T14:03:10.785Z,328
2017-12-28T14:04:12.278Z,312
2017-12-28T14:05:13.702Z,348
2017-12-28T14:06:15.167Z,308
2017-12-28T14:07:16.589Z,276
2017-12-28T14:08:18.002Z,224
2017-12-28T14:09:19.447Z,236
2017-12-28T14:10:20.855Z,180
2017-12-28T14:11:22.882Z,256
2017-12-28T14:12:24.336Z,204
2017-12-28T14:13:25.838Z,176
2017-12-28T14:14:27.268Z,180
2017-12-28T14:15:28.697Z,188
2017-12-28T14:16:30.104Z,160
2017-12-28T14:17:31.527Z,164
2017-12-28T14:18:32.940Z,184
2017-12-28T14:19:34.358Z,188
2017-12-28T14:20:38.916Z,156
2017-12-28T14:25:36.318Z,212
2017-12-28T14:26:38.848Z,196
2017-12-28T14:27:41.587Z,228
2017-12-28T14:28:44.610Z,244
2017-12-28T14:29:47.050Z,192
2017-12-28T14:30:49.483Z,160
2017-12-28T14:31:51.767Z,152
2017-12-28T14:32:54.596Z,172
2017-12-28T14:33:56.011Z,188
2017-12-28T14:34:57.429Z,148
2017-12-28T14:35:58.841Z,144
2017-12-28T14:37:00.250Z,164
2017-12-28T14:38:01.667Z,140
2017-12-28T14:39:03.085Z,132
2017-12-28T14:40:04.491Z,132
2017-12-28T14:41:05.920Z,196